LFPO 240500Z 31008KT 9999 BKN009 12/11 Q1029 TEMPO BKN006

ElémentsDécodage
LFPO Station météo située sur l'aérodrome de PARIS Orly
240500Z émis le 24 du mois à 05h00 UTC
31008KT vent du 310°, 08 noeuds
9999 visibilité horizontale supérieure à 10 Km
BKN009 nuages morcelés (5/8 à 7/8) à 900 pieds
12/11 température 12°C, point de rosée 11°C
 soit une humidité relative de 94%
Q1029 la pression au niveau de la mer (QNH) est de 1029 hPa
TEMPO fluctuation temporaire prévue
BKN006 nuages morcelés (5/8 à 7/8) à 600 pieds